createdAt,value
2023-05-22T00:00:47.404Z,28.44
2023-05-22T00:01:47.456Z,28.44
2023-05-22T00:02:47.489Z,28.42
2023-05-22T00:03:47.384Z,28.42
2023-05-22T00:04:47.482Z,28.42
2023-05-22T00:05:47.367Z,28.42
2023-05-22T00:06:47.376Z,28.44
2023-05-22T00:07:47.412Z,28.40
2023-05-22T00:08:47.385Z,28.44
2023-05-22T00:09:47.404Z,28.42
2023-05-22T00:10:47.426Z,28.42
2023-05-22T00:11:47.448Z,28.41
2023-05-22T00:12:47.382Z,28.42
2023-05-22T00:13:47.381Z,28.41
2023-05-22T00:14:47.448Z,28.42
2023-05-22T00:15:47.456Z,28.41
2023-05-22T00:16:47.541Z,28.40
2023-05-22T00:17:47.594Z,28.40
2023-05-22T00:18:47.617Z,28.41
2023-05-22T00:19:47.576Z,28.41
2023-05-22T00:20:47.576Z,28.40
2023-05-22T00:21:47.572Z,28.41
2023-05-22T00:22:47.583Z,28.38
2023-05-22T00:23:47.617Z,28.40
2023-05-22T00:24:47.606Z,28.41
2023-05-22T00:25:47.623Z,28.38
2023-05-22T00:26:47.626Z,28.38
2023-05-22T00:27:47.623Z,28.37
2023-05-22T00:28:47.640Z,28.37
2023-05-22T00:29:47.648Z,28.40
2023-05-22T00:30:47.616Z,28.35
2023-05-22T00:31:47.608Z,28.38
2023-05-22T00:32:47.643Z,28.37
2023-05-22T00:33:47.620Z,28.38
2023-05-22T00:34:47.784Z,28.40
2023-05-22T00:35:47.654Z,28.37
2023-05-22T00:36:47.589Z,28.37
2023-05-22T00:37:47.620Z,28.34
2023-05-22T00:38:47.601Z,28.37
2023-05-22T00:39:47.609Z,28.37
2023-05-22T00:40:47.616Z,28.35
2023-05-22T00:41:47.620Z,28.35
2023-05-22T00:42:47.630Z,28.37
2023-05-22T00:43:47.653Z,28.35
2023-05-22T00:44:47.635Z,28.34
2023-05-22T00:45:47.651Z,28.37
2023-05-22T00:46:47.790Z,28.34
2023-05-22T00:47:47.671Z,28.35
2023-05-22T00:48:47.673Z,28.35
2023-05-22T00:49:47.697Z,28.35
2023-05-22T00:50:47.679Z,28.33
2023-05-22T00:51:47.649Z,28.34
2023-05-22T00:52:47.685Z,28.33
2023-05-22T00:53:47.664Z,28.33
2023-05-22T00:54:47.681Z,28.34
2023-05-22T00:55:47.673Z,28.31
2023-05-22T00:56:47.644Z,28.34
2023-05-22T00:57:47.697Z,28.30
2023-05-22T00:58:47.691Z,28.33
2023-05-22T00:59:47.710Z,28.34
2023-05-22T01:00:47.725Z,28.28
2023-05-22T01:01:47.740Z,28.33
2023-05-22T01:02:47.829Z,28.33
2023-05-22T01:03:47.897Z,28.31
2023-05-22T01:04:47.750Z,28.31
2023-05-22T01:05:47.749Z,28.31
2023-05-22T01:06:47.806Z,28.33
2023-05-22T01:07:47.772Z,28.33
2023-05-22T01:08:47.716Z,28.30
2023-05-22T01:09:47.717Z,28.31
2023-05-22T01:10:47.673Z,28.30
2023-05-22T01:11:47.719Z,28.33
2023-05-22T01:12:47.743Z,28.30
2023-05-22T01:13:47.742Z,28.31
2023-05-22T01:14:47.752Z,28.28
2023-05-22T01:15:47.852Z,28.28
2023-05-22T01:16:47.849Z,28.28
2023-05-22T01:17:47.820Z,28.30
2023-05-22T01:18:47.791Z,28.30
2023-05-22T01:19:47.826Z,28.28
2023-05-22T01:20:48.763Z,28.27
2023-05-22T01:21:47.758Z,28.28
2023-05-22T01:22:47.773Z,28.30
2023-05-22T01:23:47.767Z,28.30
2023-05-22T01:24:47.777Z,28.25
2023-05-22T01:25:47.790Z,28.25
2023-05-22T01:26:47.788Z,28.27
2023-05-22T01:27:47.755Z,28.28
2023-05-22T01:28:47.740Z,28.27
2023-05-22T01:29:47.854Z,28.24
2023-05-22T01:30:47.824Z,28.25
2023-05-22T01:31:47.786Z,28.28
2023-05-22T01:32:47.931Z,28.27
2023-05-22T01:33:47.973Z,28.25
2023-05-22T01:34:47.804Z,28.25
2023-05-22T01:35:47.799Z,28.25
2023-05-22T01:36:47.801Z,28.25
2023-05-22T01:37:47.814Z,28.25
2023-05-22T01:38:47.820Z,28.24
2023-05-22T01:39:47.828Z,28.24
2023-05-22T01:40:47.830Z,28.25
2023-05-22T01:41:47.833Z,28.23
2023-05-22T01:42:47.850Z,28.23
2023-05-22T01:43:47.852Z,28.23
2023-05-22T01:44:47.849Z,28.23
2023-05-22T01:45:47.890Z,28.24
2023-05-22T01:46:47.868Z,28.23
2023-05-22T01:47:47.900Z,28.24
2023-05-22T01:48:47.909Z,28.23
2023-05-22T01:49:47.948Z,28.21
2023-05-22T01:50:48.127Z,28.21
2023-05-22T01:51:47.963Z,28.21
2023-05-22T01:52:47.967Z,28.24
2023-05-22T01:53:47.964Z,28.23
2023-05-22T01:54:47.982Z,28.23
2023-05-22T01:55:47.952Z,28.21
2023-05-22T01:56:48.004Z,28.23
2023-05-22T01:57:48.011Z,28.23
2023-05-22T01:58:48.023Z,28.20
2023-05-22T01:59:48.066Z,28.20
2023-05-22T02:00:48.052Z,28.21
2023-05-22T02:01:48.112Z,28.20
2023-05-22T02:02:48.209Z,28.20
2023-05-22T02:03:48.155Z,28.20
2023-05-22T02:04:48.094Z,28.20
2023-05-22T02:05:48.111Z,28.20
2023-05-22T02:06:48.129Z,28.18
2023-05-22T02:07:48.121Z,28.21
2023-05-22T02:08:48.112Z,28.20
2023-05-22T02:09:48.123Z,28.15
2023-05-22T02:10:48.202Z,28.20
2023-05-22T02:11:48.200Z,28.20
2023-05-22T02:12:48.155Z,28.17
2023-05-22T02:13:48.165Z,28.17
2023-05-22T02:14:48.241Z,28.17
2023-05-22T02:15:48.260Z,28.18
2023-05-22T02:16:48.245Z,28.18
2023-05-22T02:17:48.273Z,28.15
2023-05-22T02:18:48.247Z,28.14
2023-05-22T02:19:48.270Z,28.15
2023-05-22T02:20:48.269Z,28.17
2023-05-22T02:21:48.272Z,28.15
2023-05-22T02:22:48.275Z,28.17
2023-05-22T02:23:48.288Z,28.14
2023-05-22T02:24:48.336Z,28.14
2023-05-22T02:25:48.308Z,28.17
2023-05-22T02:26:48.348Z,28.15
2023-05-22T02:27:48.356Z,28.15
2023-05-22T02:28:48.369Z,28.15
2023-05-22T02:29:48.369Z,28.13
2023-05-22T02:30:48.401Z,28.14
2023-05-22T02:31:48.564Z,28.15
2023-05-22T02:32:48.471Z,28.13
2023-05-22T02:33:48.432Z,28.14
2023-05-22T02:34:48.455Z,28.14
2023-05-22T02:35:48.501Z,28.11
2023-05-22T02:36:48.514Z,28.13
2023-05-22T02:37:48.519Z,28.13
2023-05-22T02:38:48.673Z,28.14
2023-05-22T02:39:48.556Z,28.11
2023-05-22T02:40:48.515Z,28.13
2023-05-22T02:41:48.575Z,28.11
2023-05-22T02:42:48.572Z,28.11
2023-05-22T02:43:48.577Z,28.11
2023-05-22T02:44:48.636Z,28.13
2023-05-22T02:45:48.640Z,28.11
2023-05-22T02:46:48.722Z,28.10
2023-05-22T02:47:48.667Z,28.11
2023-05-22T02:48:48.659Z,28.11
2023-05-22T02:49:48.726Z,28.10
2023-05-22T02:50:48.724Z,28.11
2023-05-22T02:51:48.721Z,28.10
2023-05-22T02:52:48.740Z,28.11
2023-05-22T02:53:48.735Z,28.11
2023-05-22T02:54:48.747Z,28.10
2023-05-22T02:55:48.762Z,28.10
2023-05-22T02:56:48.781Z,28.08
2023-05-22T02:57:48.843Z,28.07
2023-05-22T02:58:48.780Z,28.07
2023-05-22T02:59:48.841Z,28.10
2023-05-22T03:00:48.858Z,28.08
2023-05-22T03:01:48.888Z,28.07
2023-05-22T03:02:48.910Z,28.07
2023-05-22T03:03:49.024Z,28.10
2023-05-22T03:04:48.914Z,28.05
2023-05-22T03:05:48.923Z,28.05
2023-05-22T03:06:48.926Z,28.08
2023-05-22T03:07:49.043Z,28.08
2023-05-22T03:08:48.940Z,28.05
2023-05-22T03:09:49.038Z,28.07
2023-05-22T03:10:49.035Z,28.07
2023-05-22T03:11:49.065Z,28.07
2023-05-22T03:12:49.038Z,28.05
2023-05-22T03:13:49.036Z,28.05
2023-05-22T03:14:49.091Z,28.05
2023-05-22T03:15:49.102Z,28.04
2023-05-22T03:16:49.246Z,28.07
2023-05-22T03:17:49.227Z,28.07
2023-05-22T03:18:49.205Z,28.04
2023-05-22T03:19:49.184Z,28.04
2023-05-22T03:20:49.186Z,28.04
2023-05-22T03:21:49.208Z,28.05
2023-05-22T03:22:49.245Z,28.05
2023-05-22T03:23:49.257Z,28.05
2023-05-22T03:24:49.258Z,28.05
2023-05-22T03:25:49.274Z,28.04
2023-05-22T03:26:49.309Z,28.05
2023-05-22T03:27:49.343Z,28.04
2023-05-22T03:28:49.332Z,28.03
2023-05-22T03:29:49.364Z,28.05
2023-05-22T03:30:49.359Z,28.04
2023-05-22T03:31:49.368Z,28.05
2023-05-22T03:32:49.455Z,28.07
2023-05-22T03:33:49.462Z,28.07
2023-05-22T03:34:49.423Z,28.05
2023-05-22T03:35:49.447Z,28.07
2023-05-22T03:36:49.476Z,28.04
2023-05-22T03:37:49.513Z,28.07
2023-05-22T03:38:49.519Z,28.05
2023-05-22T03:39:49.567Z,28.04
2023-05-22T03:40:49.577Z,28.04
2023-05-22T03:41:49.580Z,28.07
2023-05-22T03:42:49.634Z,28.07
2023-05-22T03:43:49.601Z,28.07
2023-05-22T03:44:49.598Z,28.08
2023-05-22T03:45:49.728Z,28.08
2023-05-22T03:46:49.724Z,28.10
2023-05-22T03:47:49.767Z,28.08
2023-05-22T03:48:49.734Z,28.13
2023-05-22T03:49:49.731Z,28.14
2023-05-22T03:50:49.776Z,28.18
2023-05-22T03:51:49.767Z,28.23
2023-05-22T03:52:49.803Z,28.28
2023-05-22T03:53:49.833Z,28.33
2023-05-22T03:54:49.828Z,28.38
2023-05-22T03:55:49.841Z,28.42
2023-05-22T03:56:49.899Z,28.48
2023-05-22T03:57:49.850Z,28.56
2023-05-22T03:58:49.864Z,28.61
2023-05-22T03:59:49.868Z,28.68
2023-05-22T04:00:49.919Z,28.75
2023-05-22T04:01:49.978Z,28.82
2023-05-22T04:02:50.107Z,28.91
2023-05-22T04:03:50.090Z,28.96
2023-05-22T04:04:50.155Z,29.02
2023-05-22T04:05:50.210Z,29.05
2023-05-22T04:06:50.231Z,29.10
2023-05-22T04:07:50.273Z,29.16
2023-05-22T04:08:50.278Z,29.25
2023-05-22T04:09:50.337Z,29.29
2023-05-22T04:10:50.351Z,29.34
2023-05-22T04:11:50.360Z,29.40
2023-05-22T04:12:50.379Z,29.44
2023-05-22T04:13:50.430Z,29.50
2023-05-22T04:14:50.470Z,29.58
2023-05-22T04:15:50.523Z,29.58
2023-05-22T04:16:50.720Z,29.68
2023-05-22T04:17:50.644Z,29.75
2023-05-22T04:18:50.671Z,29.83
2023-05-22T04:19:50.720Z,29.87
2023-05-22T04:20:50.768Z,29.97
2023-05-22T04:21:50.838Z,30.01
2023-05-22T04:22:50.833Z,30.11
2023-05-22T04:23:50.892Z,30.16
2023-05-22T04:24:50.903Z,30.24
2023-05-22T04:25:50.956Z,30.31
2023-05-22T04:26:50.963Z,30.36
2023-05-22T04:27:51.033Z,30.49
2023-05-22T04:28:51.033Z,30.56
2023-05-22T04:29:51.033Z,30.65
2023-05-22T04:30:51.083Z,30.73
2023-05-22T04:31:51.048Z,30.82
2023-05-22T04:32:51.105Z,30.90
2023-05-22T04:33:51.120Z,31.01
2023-05-22T04:34:51.228Z,31.10
2023-05-22T04:35:51.183Z,31.18
2023-05-22T04:36:51.250Z,31.27
2023-05-22T04:37:51.258Z,31.33
2023-05-22T04:38:51.258Z,31.42
2023-05-22T04:39:51.275Z,31.51
2023-05-22T04:40:51.274Z,31.58
2023-05-22T04:41:51.274Z,31.65
2023-05-22T04:42:51.288Z,31.74
2023-05-22T04:43:51.401Z,31.82
2023-05-22T04:44:51.447Z,31.87
2023-05-22T04:45:51.476Z,31.95
2023-05-22T04:46:51.570Z,32.04
2023-05-22T04:47:51.612Z,32.11
2023-05-22T04:48:51.581Z,32.15
2023-05-22T04:49:51.588Z,32.26
2023-05-22T04:50:51.645Z,32.33
2023-05-22T04:51:51.657Z,32.39
2023-05-22T04:52:51.679Z,32.46
2023-05-22T04:53:51.707Z,32.49
2023-05-22T04:54:51.732Z,32.56
2023-05-22T04:55:51.679Z,32.62
2023-05-22T04:56:51.729Z,32.67
2023-05-22T04:57:51.740Z,32.71
2023-05-22T04:58:51.753Z,32.71
2023-05-22T04:59:51.756Z,32.56
2023-05-22T05:00:51.766Z,32.32
2023-05-22T05:01:51.765Z,31.98
2023-05-22T05:02:51.985Z,31.67
2023-05-22T05:03:51.904Z,31.45
2023-05-22T05:04:51.890Z,31.26
2023-05-22T05:05:51.901Z,31.07
2023-05-22T05:06:51.960Z,30.90
2023-05-22T05:07:51.971Z,30.76
2023-05-22T05:08:52.018Z,30.65
2023-05-22T05:09:52.097Z,30.54
2023-05-22T05:10:52.142Z,30.45
2023-05-22T05:11:52.173Z,30.35
2023-05-22T05:12:52.176Z,30.25
2023-05-22T05:13:52.211Z,30.18
2023-05-22T05:14:52.215Z,30.11
2023-05-22T05:15:52.259Z,30.05
2023-05-22T05:16:52.318Z,30.00
2023-05-22T05:17:52.392Z,29.95
2023-05-22T05:18:52.362Z,29.89
2023-05-22T05:19:52.295Z,29.88
2023-05-22T05:20:52.318Z,29.83
2023-05-22T05:21:52.314Z,29.80
2023-05-22T05:22:52.311Z,29.77
2023-05-22T05:23:52.341Z,29.75
2023-05-22T05:24:52.403Z,29.75
2023-05-22T05:25:52.371Z,29.74
2023-05-22T05:26:52.417Z,29.71
2023-05-22T05:27:52.380Z,29.73
2023-05-22T05:28:52.409Z,29.66
2023-05-22T05:29:52.419Z,29.53
2023-05-22T05:30:52.532Z,29.49
2023-05-22T05:31:52.563Z,29.44
2023-05-22T05:32:52.590Z,29.34
2023-05-22T05:33:52.529Z,29.29
2023-05-22T05:34:52.582Z,29.23
2023-05-22T05:35:52.681Z,29.15
2023-05-22T05:36:52.661Z,29.09
2023-05-22T05:37:52.755Z,29.06
2023-05-22T05:38:52.802Z,29.05
2023-05-22T05:39:52.846Z,29.01
2023-05-22T05:40:52.996Z,28.95
2023-05-22T05:41:52.974Z,28.92
2023-05-22T05:42:52.968Z,28.89
2023-05-22T05:43:53.096Z,28.86
2023-05-22T05:44:53.092Z,28.83
2023-05-22T05:45:53.270Z,28.81
2023-05-22T05:46:53.247Z,28.78
2023-05-22T05:47:53.304Z,28.75
2023-05-22T05:48:53.290Z,28.72
2023-05-22T05:49:53.352Z,28.72
2023-05-22T05:50:53.339Z,28.72
2023-05-22T05:51:53.491Z,28.68
2023-05-22T05:52:53.350Z,28.69
2023-05-22T05:53:53.356Z,28.66
2023-05-22T05:54:53.343Z,28.66
2023-05-22T05:55:53.322Z,28.69
2023-05-22T05:56:53.354Z,28.71
2023-05-22T05:57:53.381Z,28.71
2023-05-22T05:58:53.448Z,28.71
2023-05-22T05:59:53.445Z,28.71
2023-05-22T06:00:53.462Z,28.75
2023-05-22T06:01:53.476Z,28.74
2023-05-22T06:02:53.598Z,28.75
2023-05-22T06:03:53.825Z,28.79
2023-05-22T06:04:53.696Z,28.81
2023-05-22T06:05:53.669Z,28.81
2023-05-22T06:06:53.794Z,28.81
2023-05-22T06:07:53.744Z,28.85
2023-05-22T06:08:53.830Z,28.85
2023-05-22T06:09:53.884Z,28.85
2023-05-22T06:10:53.986Z,28.86
2023-05-22T06:11:54.002Z,28.89
2023-05-22T06:12:54.063Z,28.89
2023-05-22T06:13:54.111Z,28.91
2023-05-22T06:14:54.183Z,28.92
2023-05-22T06:15:54.296Z,28.93
2023-05-22T06:16:54.529Z,28.91
2023-05-22T06:17:54.440Z,28.93
2023-05-22T06:18:54.518Z,28.98
2023-05-22T06:19:54.514Z,28.95
2023-05-22T06:20:54.520Z,28.98
2023-05-22T06:21:54.626Z,28.98
2023-05-22T06:22:54.702Z,28.96
2023-05-22T06:23:54.750Z,28.99
2023-05-22T06:24:54.899Z,28.99
2023-05-22T06:25:54.827Z,28.96
2023-05-22T06:26:54.887Z,28.96
2023-05-22T06:27:54.963Z,28.99
2023-05-22T06:28:54.989Z,29.01
2023-05-22T06:29:56.331Z,28.98
2023-05-22T06:30:55.135Z,29.02
2023-05-22T06:31:55.203Z,29.03
2023-05-22T06:32:55.257Z,29.05
2023-05-22T06:33:55.458Z,29.06
2023-05-22T06:34:55.369Z,29.09
2023-05-22T06:35:55.421Z,29.09
2023-05-22T06:36:55.466Z,29.07
2023-05-22T06:37:55.576Z,29.10
2023-05-22T06:38:55.620Z,29.10
2023-05-22T06:39:56.361Z,29.09
2023-05-22T06:40:55.586Z,29.09
2023-05-22T06:41:55.656Z,29.07
2023-05-22T06:42:55.783Z,29.07
2023-05-22T06:43:55.861Z,29.06
2023-05-22T06:44:56.044Z,29.06
2023-05-22T06:45:55.928Z,29.05
2023-05-22T06:46:55.961Z,29.06
2023-05-22T06:47:56.462Z,29.07
2023-05-22T06:48:56.073Z,29.05
2023-05-22T06:49:56.096Z,29.02
2023-05-22T06:50:56.138Z,29.03
2023-05-22T06:51:56.165Z,29.01
2023-05-22T06:52:56.294Z,28.99
2023-05-22T06:53:56.337Z,29.01
2023-05-22T06:54:56.385Z,29.01
2023-05-22T06:55:56.348Z,28.99
2023-05-22T06:56:56.410Z,29.01
2023-05-22T06:57:56.978Z,29.01
2023-05-22T06:58:56.570Z,29.02
2023-05-22T06:59:56.633Z,28.98
2023-05-22T07:00:56.650Z,28.99
2023-05-22T07:01:56.742Z,28.98
2023-05-22T07:02:56.862Z,28.99
2023-05-22T07:03:56.934Z,29.01
2023-05-22T07:04:56.837Z,28.99
2023-05-22T07:05:57.001Z,29.01
2023-05-22T07:06:56.934Z,29.02
2023-05-22T07:07:57.005Z,29.02
2023-05-22T07:08:57.088Z,29.01
2023-05-22T07:09:57.160Z,29.01
2023-05-22T07:10:57.272Z,29.02
2023-05-22T07:11:57.231Z,28.98
2023-05-22T07:12:57.303Z,29.01
2023-05-22T07:13:57.434Z,29.01
2023-05-22T07:14:57.437Z,28.98
2023-05-22T07:15:57.560Z,29.01
2023-05-22T07:16:57.606Z,29.01
2023-05-22T07:17:57.699Z,28.99
2023-05-22T07:18:57.775Z,28.99
2023-05-22T07:19:57.710Z,29.01
2023-05-22T07:20:57.813Z,28.99
2023-05-22T07:21:57.833Z,28.99
2023-05-22T07:22:57.944Z,28.99
2023-05-22T07:23:57.945Z,28.99
2023-05-22T07:24:58.055Z,29.02
2023-05-22T07:25:58.075Z,29.01
2023-05-22T07:26:58.155Z,28.99
2023-05-22T07:27:58.688Z,29.02
2023-05-22T07:28:58.475Z,29.01
2023-05-22T07:29:58.460Z,29.02
2023-05-22T07:30:58.391Z,29.01
2023-05-22T07:31:58.588Z,29.01
2023-05-22T07:32:59.039Z,29.01
2023-05-22T07:33:58.653Z,29.01
2023-05-22T07:34:59.874Z,29.02
2023-05-22T07:35:58.752Z,29.02
2023-05-22T07:36:58.782Z,29.02
2023-05-22T07:37:58.844Z,29.02
2023-05-22T07:38:58.959Z,29.01
2023-05-22T07:39:59.019Z,29.02
2023-05-22T07:40:59.061Z,29.01
2023-05-22T07:41:59.563Z,29.02
2023-05-22T07:42:59.260Z,29.01
2023-05-22T07:43:59.184Z,29.02
2023-05-22T07:44:59.298Z,29.05
2023-05-22T07:45:59.284Z,29.05
2023-05-22T07:46:59.325Z,29.07
2023-05-22T07:48:00.577Z,29.09
2023-05-22T07:48:59.539Z,29.09
2023-05-22T07:49:59.545Z,29.10
2023-05-22T07:50:59.526Z,29.09
2023-05-22T07:51:59.561Z,29.12
2023-05-22T07:52:59.629Z,29.13
2023-05-22T07:54:59.741Z,29.12
2023-05-22T07:55:59.676Z,29.15
2023-05-22T07:56:59.768Z,29.15
2023-05-22T07:57:59.761Z,29.19
2023-05-22T07:58:59.929Z,29.19
2023-05-22T07:59:59.923Z,29.20
2023-05-22T08:00:59.878Z,29.22
2023-05-22T08:01:59.914Z,29.23
2023-05-22T08:03:00.204Z,29.27
2023-05-22T08:04:00.142Z,29.25
2023-05-22T08:05:00.571Z,29.23
2023-05-22T08:06:00.481Z,29.26
2023-05-22T08:07:00.110Z,29.26
2023-05-22T08:08:00.153Z,29.27
2023-05-22T08:09:00.171Z,29.30
2023-05-22T08:10:00.228Z,29.29
2023-05-22T08:11:04.090Z,29.29
2023-05-22T08:12:00.298Z,29.30
2023-05-22T08:13:00.293Z,29.33
2023-05-22T08:14:00.201Z,29.32
2023-05-22T08:15:00.224Z,29.34
2023-05-22T08:16:01.371Z,29.34
2023-05-22T08:17:00.231Z,29.36
2023-05-22T08:18:00.260Z,29.34
2023-05-22T08:19:00.288Z,29.37
2023-05-22T08:20:00.357Z,29.40
2023-05-22T08:21:00.230Z,29.40
2023-05-22T08:22:00.164Z,29.40
2023-05-22T08:23:00.128Z,29.42
2023-05-22T08:24:00.153Z,29.40
2023-05-22T08:25:00.478Z,29.42
2023-05-22T08:26:00.162Z,29.40
2023-05-22T08:27:00.119Z,29.42
2023-05-22T08:28:00.112Z,29.46
2023-05-22T08:29:00.149Z,29.47
2023-05-22T08:30:00.544Z,29.43
2023-05-22T08:31:00.118Z,29.44
2023-05-22T08:32:00.201Z,29.43
2023-05-22T08:33:00.226Z,29.42
2023-05-22T08:34:00.185Z,29.40
2023-05-22T08:35:00.519Z,29.37
2023-05-22T08:36:00.047Z,29.34
2023-05-22T08:37:00.077Z,29.30
2023-05-22T08:38:00.119Z,29.25
2023-05-22T08:39:00.136Z,29.19
2023-05-22T08:40:00.238Z,29.17
2023-05-22T08:41:00.211Z,29.12
2023-05-22T08:42:00.194Z,29.09
2023-05-22T08:43:00.219Z,29.05
2023-05-22T08:44:00.212Z,29.05
2023-05-22T08:45:00.301Z,29.02
2023-05-22T08:46:00.482Z,29.05
2023-05-22T08:47:00.502Z,29.07
2023-05-22T08:48:00.717Z,29.09
2023-05-22T08:49:00.458Z,29.15
2023-05-22T08:50:00.506Z,29.20
2023-05-22T08:51:00.544Z,29.23
2023-05-22T08:52:00.554Z,29.26
2023-05-22T08:53:00.644Z,29.30
2023-05-22T08:54:00.648Z,29.33
2023-05-22T08:55:00.692Z,29.38
2023-05-22T08:56:00.828Z,29.40
2023-05-22T08:57:00.768Z,29.44
2023-05-22T08:58:00.805Z,29.46
2023-05-22T08:59:00.984Z,29.49
2023-05-22T09:00:00.916Z,29.52
2023-05-22T09:01:00.893Z,29.52
2023-05-22T09:02:00.913Z,29.56
2023-05-22T09:03:01.011Z,29.58
2023-05-22T09:04:01.213Z,29.60
2023-05-22T09:05:00.977Z,29.61
2023-05-22T09:06:01.000Z,29.66
2023-05-22T09:07:01.497Z,29.67
2023-05-22T09:08:15.867Z,29.67
2023-05-22T09:09:02.052Z,29.68
2023-05-22T09:10:01.040Z,29.70
2023-05-22T09:11:01.052Z,29.73
2023-05-22T09:12:01.555Z,29.73
2023-05-22T09:13:01.118Z,29.75
2023-05-22T09:14:01.031Z,29.77
2023-05-22T09:15:01.043Z,29.80
2023-05-22T09:16:01.044Z,29.80
2023-05-22T09:17:01.076Z,29.78
2023-05-22T09:18:01.062Z,29.80
2023-05-22T09:19:00.988Z,29.83
2023-05-22T09:20:00.985Z,29.83
2023-05-22T09:21:00.988Z,29.84
2023-05-22T09:22:00.942Z,29.84
2023-05-22T09:23:01.012Z,29.87
2023-05-22T09:24:01.119Z,29.85
2023-05-22T09:25:01.181Z,29.88
2023-05-22T09:26:00.967Z,29.88
2023-05-22T09:27:01.007Z,29.91
2023-05-22T09:28:00.885Z,29.92
2023-05-22T09:29:01.050Z,29.92
2023-05-22T09:30:01.079Z,29.94
2023-05-22T09:31:03.830Z,29.94
2023-05-22T09:32:00.877Z,29.98
2023-05-22T09:33:00.967Z,30.00
2023-05-22T09:34:00.880Z,30.01
2023-05-22T09:35:01.091Z,30.01
2023-05-22T09:36:00.909Z,30.01
2023-05-22T09:37:00.872Z,30.01
2023-05-22T09:38:00.929Z,30.00
2023-05-22T09:39:00.828Z,30.00
2023-05-22T09:40:01.032Z,30.04
2023-05-22T09:41:01.051Z,30.05
2023-05-22T09:42:00.854Z,30.05
2023-05-22T09:43:00.824Z,30.07
2023-05-22T09:44:02.151Z,30.08
2023-05-22T09:45:00.818Z,30.11
2023-05-22T09:46:01.008Z,30.11
2023-05-22T09:47:00.850Z,30.12
2023-05-22T09:48:00.894Z,30.14
2023-05-22T09:49:00.847Z,30.14
2023-05-22T09:50:00.803Z,30.18
2023-05-22T09:51:00.801Z,30.16
2023-05-22T09:52:00.899Z,30.21
2023-05-22T09:53:02.373Z,30.21
2023-05-22T09:54:01.015Z,30.21
2023-05-22T09:55:00.729Z,30.22
2023-05-22T09:56:00.702Z,30.26
2023-05-22T09:57:00.723Z,30.26
2023-05-22T09:58:00.707Z,30.29
2023-05-22T09:59:00.689Z,30.31
2023-05-22T10:00:00.753Z,30.32
2023-05-22T10:01:00.742Z,30.35
2023-05-22T10:02:00.822Z,30.34
2023-05-22T10:03:00.863Z,30.35
2023-05-22T10:04:00.901Z,30.34
2023-05-22T10:05:01.002Z,30.34
2023-05-22T10:06:01.012Z,30.36
2023-05-22T10:07:01.066Z,30.32
2023-05-22T10:08:01.089Z,30.35
2023-05-22T10:09:01.191Z,30.38
2023-05-22T10:10:01.259Z,30.38
2023-05-22T10:11:01.261Z,30.38
2023-05-22T10:12:01.349Z,30.39
2023-05-22T10:13:01.411Z,30.42
2023-05-22T10:14:01.465Z,30.39
2023-05-22T10:15:01.514Z,30.40
2023-05-22T10:16:03.556Z,30.42
2023-05-22T10:17:01.672Z,30.42
2023-05-22T10:18:01.776Z,30.42
2023-05-22T10:19:01.830Z,30.46
2023-05-22T10:20:02.149Z,30.48
2023-05-22T10:21:01.888Z,30.48
2023-05-22T10:22:01.970Z,30.48
2023-05-22T10:23:02.655Z,30.49
2023-05-22T10:24:02.019Z,30.48
2023-05-22T10:25:02.532Z,30.45
2023-05-22T10:26:02.122Z,30.43
2023-05-22T10:27:02.199Z,30.45
2023-05-22T10:28:02.251Z,30.42
2023-05-22T10:29:02.359Z,30.42
2023-05-22T10:30:02.555Z,30.42
2023-05-22T10:31:02.396Z,30.40
2023-05-22T10:32:02.482Z,30.42
2023-05-22T10:33:02.635Z,30.42
2023-05-22T10:34:02.619Z,30.43
2023-05-22T10:35:02.606Z,30.42
2023-05-22T10:36:02.626Z,30.42
2023-05-22T10:37:13.138Z,30.43
2023-05-22T10:38:04.053Z,30.43
2023-05-22T10:39:02.751Z,30.43
2023-05-22T10:40:02.644Z,30.45
2023-05-22T10:41:02.662Z,30.45
2023-05-22T10:42:02.657Z,30.46
2023-05-22T10:43:03.081Z,30.46
2023-05-22T10:44:02.641Z,30.49
2023-05-22T10:45:02.632Z,30.50
2023-05-22T10:46:02.657Z,30.50
2023-05-22T10:47:02.687Z,30.49
2023-05-22T10:48:03.138Z,30.52
2023-05-22T10:49:02.809Z,30.50
2023-05-22T10:50:02.865Z,30.54
2023-05-22T10:51:02.897Z,30.56
2023-05-22T10:52:02.905Z,30.56
2023-05-22T10:53:02.967Z,30.58
2023-05-22T10:54:03.016Z,30.56
2023-05-22T10:55:03.092Z,30.58
2023-05-22T10:56:03.166Z,30.56
2023-05-22T10:57:03.091Z,30.59
2023-05-22T10:58:05.120Z,30.61
2023-05-22T10:59:03.184Z,30.62
2023-05-22T11:00:03.194Z,30.63
2023-05-22T11:01:03.285Z,30.62
2023-05-22T11:02:03.347Z,30.62
2023-05-22T11:03:10.069Z,30.65
2023-05-22T11:04:04.574Z,30.65
2023-05-22T11:05:03.520Z,30.66
2023-05-22T11:06:03.583Z,30.69
2023-05-22T11:07:03.324Z,30.70
2023-05-22T11:08:03.272Z,30.69
2023-05-22T11:09:03.305Z,30.67
2023-05-22T11:10:03.300Z,30.69
2023-05-22T11:11:04.864Z,30.70
2023-05-22T11:12:03.265Z,30.69
2023-05-22T11:13:03.274Z,30.69
2023-05-22T11:14:03.248Z,30.72
2023-05-22T11:15:03.287Z,30.73
2023-05-22T11:16:03.234Z,30.75
2023-05-22T11:17:03.364Z,30.73
2023-05-22T11:18:03.258Z,30.75
2023-05-22T11:20:03.317Z,30.77
2023-05-22T11:21:03.225Z,30.79
2023-05-22T11:22:03.257Z,30.77
2023-05-22T11:23:03.217Z,30.76
2023-05-22T11:24:03.594Z,30.77
2023-05-22T11:25:03.294Z,30.76
2023-05-22T11:26:03.282Z,30.76
2023-05-22T11:27:03.415Z,30.76
2023-05-22T11:28:03.308Z,30.73
2023-05-22T11:29:03.390Z,30.73
2023-05-22T11:30:03.372Z,30.73
2023-05-22T11:31:03.512Z,30.69
2023-05-22T11:32:03.460Z,30.67
2023-05-22T11:33:03.521Z,30.67
2023-05-22T11:34:03.504Z,30.66
2023-05-22T11:35:03.637Z,30.65
2023-05-22T11:36:03.630Z,30.62
2023-05-22T11:37:03.625Z,30.61
2023-05-22T11:38:03.682Z,30.62
2023-05-22T11:39:03.761Z,30.59
2023-05-22T11:40:03.769Z,30.59
2023-05-22T11:41:03.806Z,30.58
2023-05-22T11:42:03.890Z,30.58
2023-05-22T11:43:03.936Z,30.58
2023-05-22T11:44:04.001Z,30.56
2023-05-22T11:45:04.054Z,30.52
2023-05-22T11:46:04.190Z,30.52
2023-05-22T11:47:04.154Z,30.52
2023-05-22T11:48:04.354Z,30.49
2023-05-22T11:49:04.334Z,30.48
2023-05-22T11:50:04.401Z,30.48
2023-05-22T11:51:04.405Z,30.45
2023-05-22T11:52:04.468Z,30.45
2023-05-22T11:53:04.571Z,30.46
2023-05-22T11:54:04.632Z,30.46
2023-05-22T11:55:04.667Z,30.45
2023-05-22T11:56:04.690Z,30.43
2023-05-22T11:57:04.732Z,30.40
2023-05-22T11:58:04.817Z,30.42
2023-05-22T11:59:04.938Z,30.39
2023-05-22T12:00:04.933Z,30.39
2023-05-22T12:01:04.984Z,30.34
2023-05-22T12:02:05.037Z,30.35
2023-05-22T12:03:05.206Z,30.28
2023-05-22T12:04:05.259Z,30.24
2023-05-22T12:05:05.181Z,30.22
2023-05-22T12:06:05.385Z,30.26
2023-05-22T12:07:05.277Z,30.29
2023-05-22T12:08:05.311Z,30.32
2023-05-22T12:09:05.329Z,30.26
2023-05-22T12:10:05.417Z,30.24
2023-05-22T12:11:05.409Z,30.26
2023-05-22T12:12:05.451Z,30.32
2023-05-22T12:13:05.453Z,30.34
2023-05-22T12:14:05.479Z,30.36
2023-05-22T12:15:05.614Z,30.40
2023-05-22T12:16:05.592Z,30.39
2023-05-22T12:17:05.576Z,30.34
2023-05-22T12:18:05.638Z,30.29
2023-05-22T12:19:05.626Z,30.19
2023-05-22T12:20:05.762Z,30.12
2023-05-22T12:21:05.708Z,30.12
2023-05-22T12:22:05.800Z,30.14
2023-05-22T12:23:05.797Z,30.14
2023-05-22T12:24:05.831Z,30.19
2023-05-22T12:25:05.909Z,30.19
2023-05-22T12:26:05.942Z,30.22
2023-05-22T12:27:05.957Z,30.26
2023-05-22T12:28:06.042Z,30.26
2023-05-22T12:29:06.028Z,30.28
2023-05-22T12:30:06.185Z,30.28
2023-05-22T12:31:06.213Z,30.32
2023-05-22T12:32:06.218Z,30.31
2023-05-22T12:33:06.214Z,30.32
2023-05-22T12:34:06.285Z,30.31
2023-05-22T12:35:06.329Z,30.28
2023-05-22T12:36:06.329Z,30.28
2023-05-22T12:37:06.441Z,30.26
2023-05-22T12:38:06.408Z,30.29
2023-05-22T12:39:06.440Z,30.15
2023-05-22T12:40:06.417Z,30.14
2023-05-22T12:41:06.425Z,30.04
2023-05-22T12:42:06.443Z,29.98
2023-05-22T12:43:06.465Z,29.87
2023-05-22T12:44:06.531Z,29.83
2023-05-22T12:45:06.472Z,29.80
2023-05-22T12:46:06.506Z,29.75
2023-05-22T12:47:06.546Z,29.68
2023-05-22T12:48:06.627Z,29.60
2023-05-22T12:49:06.491Z,29.58
2023-05-22T12:50:06.435Z,29.57
2023-05-22T12:51:06.553Z,29.61
2023-05-22T12:52:06.453Z,29.64
2023-05-22T12:53:06.454Z,29.58
2023-05-22T12:54:06.453Z,29.61
2023-05-22T12:55:06.472Z,29.58